Time;durP1;ratioP1;P1;durP2;ratioP2;P2;SDS_P1;SDS_P2;PMS_P1;PMS_P2;Temp;Humidity;BMP_temperature;BMP_pressure;BME280_temperature;BME280_humidity;BME280_pressure;Samples;Min_cycle;Max_cycle;Signal;HPM_P1;HPM_P2
2021/12/28 00:01:32;;;;;;;103.20;39.80;;;;;;;-6.08;76.73;99619.91;51127;1322;1016645;-63
2021/12/28 00:04:05;;;;;;;99.50;39.90;;;;;;;-6.09;76.73;99619.52;51245;1319;1016672;-63
2021/12/28 00:06:36;;;;;;;106.10;41.20;;;;;;;-6.10;76.75;99624.40;51154;1315;1016635;-63
2021/12/28 00:09:09;;;;;;;103.60;41.50;;;;;;;-6.08;76.79;99627.27;51209;1323;1016332;-63
2021/12/28 00:11:40;;;;;;;108.40;43.10;;;;;;;-6.08;76.75;99628.91;51254;1320;1016227;-64
2021/12/28 00:14:11;;;;;;;115.00;46.00;;;;;;;-6.10;76.72;99627.89;51140;1315;1016490;-63
2021/12/28 00:19:31;;;;;;;120.60;44.70;;;;;;;-6.14;76.81;99617.23;51252;1321;1016547;-63
2021/12/28 00:22:02;;;;;;;115.30;45.40;;;;;;;-6.16;76.90;99613.28;51616;1323;1016834;-64
2021/12/28 00:24:35;;;;;;;114.70;46.20;;;;;;;-6.18;76.65;99610.79;51708;1322;1016616;-64
2021/12/28 00:27:07;;;;;;;115.20;43.70;;;;;;;-6.20;76.95;99606.66;51241;1316;1016558;-63
2021/12/28 00:29:38;;;;;;;119.00;49.20;;;;;;;-6.20;76.79;99609.30;51195;1319;1016297;-63
2021/12/28 00:32:10;;;;;;;132.40;52.70;;;;;;;-6.24;76.69;99610.68;51289;1316;1015969;-63
2021/12/28 00:34:42;;;;;;;119.10;44.10;;;;;;;-6.26;76.76;99609.43;51272;1320;1016216;-63
2021/12/28 00:37:13;;;;;;;105.00;40.00;;;;;;;-6.29;76.89;99599.41;51110;1320;1016617;-63
2021/12/28 00:39:44;;;;;;;120.90;47.50;;;;;;;-6.31;77.03;99597.15;51218;1323;1016683;-63
2021/12/28 00:42:15;;;;;;;111.00;44.70;;;;;;;-6.31;76.96;99596.52;51061;1316;1016310;-63
2021/12/28 00:44:46;;;;;;;123.90;47.70;;;;;;;-6.31;77.04;99597.84;51107;1315;1018325;-63
2021/12/28 00:47:18;;;;;;;116.20;42.70;;;;;;;-6.31;76.96;99591.64;51089;1320;1016498;-63
2021/12/28 00:49:50;;;;;;;122.10;43.80;;;;;;;-6.32;77.00;99587.06;51224;1316;1016612;-63
2021/12/28 00:52:20;;;;;;;105.70;42.70;;;;;;;-6.33;76.99;99583.41;51167;1315;1017548;-63
2021/12/28 00:54:51;;;;;;;100.50;40.40;;;;;;;-6.34;76.97;99580.21;51108;1323;1016453;-63
2021/12/28 00:57:22;;;;;;;109.00;40.70;;;;;;;-6.34;77.12;99578.30;51236;1315;1015611;-64
2021/12/28 00:59:53;;;;;;;109.60;42.70;;;;;;;-6.34;77.09;99581.86;51134;1315;1016159;-63
2021/12/28 01:02:24;;;;;;;105.80;43.80;;;;;;;-6.33;77.31;99579.84;51166;1317;1020163;-63
2021/12/28 01:04:55;;;;;;;104.90;41.50;;;;;;;-6.32;77.15;99578.37;51206;1315;1015968;-64
2021/12/28 01:07:26;;;;;;;113.20;43.00;;;;;;;-6.34;77.04;99575.96;51113;1316;1016352;-63
2021/12/28 01:09:58;;;;;;;110.70;42.00;;;;;;;-6.34;77.11;99572.70;51134;1323;1016337;-63
2021/12/28 01:12:30;;;;;;;116.60;42.50;;;;;;;-6.36;77.05;99570.52;51133;1323;1019112;-63
2021/12/28 01:15:01;;;;;;;116.80;42.70;;;;;;;-6.38;77.12;99572.14;51179;1315;1015928;-63
2021/12/28 01:17:33;;;;;;;110.40;44.30;;;;;;;-6.39;77.20;99580.05;51150;1321;1016659;-63
2021/12/28 01:20:06;;;;;;;102.00;42.20;;;;;;;-6.39;77.00;99583.92;51260;1315;1015679;-63
2021/12/28 01:22:38;;;;;;;105.70;40.70;;;;;;;-6.42;76.99;99583.30;51231;1316;1016635;-63
2021/12/28 01:25:12;;;;;;;119.20;43.00;;;;;;;-6.46;77.04;99583.97;51264;1318;1016660;-64
2021/12/28 01:27:45;;;;;;;116.50;45.00;;;;;;;-6.47;77.15;99586.83;51275;1319;1017632;-63
2021/12/28 01:30:19;;;;;;;113.90;42.80;;;;;;;-6.49;77.12;99590.40;51131;1315;1016383;-64
2021/12/28 01:32:54;;;;;;;105.10;41.10;;;;;;;-6.49;77.19;99584.12;51135;1315;1016681;-64
2021/12/28 01:35:25;;;;;;;112.10;42.10;;;;;;;-6.50;77.26;99585.36;51095;1319;1016678;-64
2021/12/28 01:37:56;;;;;;;118.00;48.40;;;;;;;-6.50;77.28;99586.67;51120;1320;1015964;-63
2021/12/28 01:40:31;;;;;;;118.90;43.30;;;;;;;-6.50;77.24;99586.66;51286;1319;1016806;-63
2021/12/28 01:43:11;;;;;;;117.10;44.60;;;;;;;-6.52;77.15;99589.84;51251;1323;1016307;-64
2021/12/28 01:45:49;;;;;;;119.60;44.50;;;;;;;-6.53;77.18;99590.22;51302;1323;1016471;-63
2021/12/28 01:48:23;;;;;;;122.10;43.40;;;;;;;-6.51;77.26;99594.02;51258;1316;1015812;-63
2021/12/28 01:51:01;;;;;;;125.10;45.30;;;;;;;-6.52;77.22;99592.71;51341;1316;1016612;-63
2021/12/28 01:53:33;;;;;;;115.50;41.70;;;;;;;-6.54;77.23;99585.34;51268;1321;1015882;-63
2021/12/28 01:56:07;;;;;;;111.20;42.50;;;;;;;-6.57;77.23;99586.02;51271;1322;1016619;-63
2021/12/28 01:58:40;;;;;;;127.20;46.90;;;;;;;-6.55;77.40;99580.83;51255;1320;1016778;-63
2021/12/28 02:01:12;;;;;;;118.30;44.80;;;;;;;-6.54;77.42;99582.77;51082;1322;1016236;-63
2021/12/28 02:03:45;;;;;;;139.20;56.70;;;;;;;-6.55;77.32;99579.20;51105;1323;1016428;-63
2021/12/28 02:06:17;;;;;;;141.30;50.40;;;;;;;-6.55;77.41;99576.95;51140;1323;1016651;-63
2021/12/28 02:08:48;;;;;;;124.50;47.10;;;;;;;-6.55;77.35;99568.88;51126;1316;1016372;-63
2021/12/28 02:11:20;;;;;;;115.00;43.70;;;;;;;-6.53;77.51;99563.62;51169;1319;1016259;-63
2021/12/28 02:13:52;;;;;;;113.10;45.10;;;;;;;-6.51;77.38;99556.87;51251;1315;1016636;-63
2021/12/28 02:16:23;;;;;;;109.10;45.20;;;;;;;-6.49;77.39;99553.31;51189;1322;1018314;-63
2021/12/28 02:18:54;;;;;;;111.40;43.50;;;;;;;-6.47;77.45;99549.05;51154;1316;1016617;-63
2021/12/28 02:21:26;;;;;;;102.90;42.00;;;;;;;-6.41;77.53;99541.40;51118;1322;1016427;-64
2021/12/28 02:23:58;;;;;;;107.30;40.80;;;;;;;-6.37;77.50;99539.48;51205;1323;1016706;-63
2021/12/28 02:26:30;;;;;;;109.50;43.90;;;;;;;-6.31;77.49;99540.20;51324;1320;1016467;-64
2021/12/28 02:29:02;;;;;;;118.70;44.50;;;;;;;-6.25;77.35;99545.42;51206;1319;1017023;-63
2021/12/28 02:31:33;;;;;;;116.80;45.80;;;;;;;-6.23;77.23;99549.30;51217;1320;1018666;-63
2021/12/28 02:34:06;;;;;;;106.60;40.90;;;;;;;-6.21;77.14;99540.30;51248;1315;1016661;-64
2021/12/28 02:36:37;;;;;;;108.10;42.60;;;;;;;-6.21;77.11;99540.70;51234;1315;1016601;-64
2021/12/28 02:39:07;;;;;;;108.50;42.10;;;;;;;-6.20;77.14;99541.15;51269;1316;1016231;-63
2021/12/28 02:41:39;;;;;;;130.00;46.50;;;;;;;-6.22;77.08;99545.58;51115;1319;1016378;-63
2021/12/28 02:44:10;;;;;;;107.90;43.50;;;;;;;-6.20;77.10;99539.30;51229;1316;1016384;-63
2021/12/28 02:46:41;;;;;;;102.80;39.90;;;;;;;-6.20;77.11;99529.21;51220;1321;1016465;-63
2021/12/28 02:49:12;;;;;;;107.10;40.50;;;;;;;-6.18;76.99;99532.63;51185;1315;1016564;-63
2021/12/28 02:51:44;;;;;;;118.50;41.10;;;;;;;-6.15;76.99;99527.83;51304;1322;1016865;-63
2021/12/28 02:54:15;;;;;;;116.50;43.30;;;;;;;-6.13;76.83;99527.59;51206;1319;1017372;-63
2021/12/28 02:56:47;;;;;;;105.00;40.40;;;;;;;-6.16;76.90;99523.09;51267;1319;1016568;-64
2021/12/28 02:59:19;;;;;;;108.60;40.60;;;;;;;-6.18;76.91;99527.89;51102;1315;1016533;-63
2021/12/28 03:01:50;;;;;;;112.90;44.20;;;;;;;-6.20;76.93;99526.27;51248;1319;1016597;-63
2021/12/28 03:04:24;;;;;;;113.60;42.90;;;;;;;-6.17;77.06;99528.60;51278;1320;1015948;-63
2021/12/28 03:06:56;;;;;;;104.60;39.90;;;;;;;-6.15;77.00;99524.10;51822;1322;1018195;-64
2021/12/28 03:09:27;;;;;;;103.70;40.60;;;;;;;-6.11;77.04;99529.23;51323;1316;1016570;-63
2021/12/28 03:11:58;;;;;;;116.60;43.20;;;;;;;-6.07;76.97;99525.66;51214;1315;1016351;-63
2021/12/28 03:14:29;;;;;;;114.70;44.20;;;;;;;-6.08;76.88;99521.46;51335;1320;1016643;-64
2021/12/28 03:17:01;;;;;;;113.80;46.90;;;;;;;-6.06;76.85;99521.70;51211;1319;1016576;-63
2021/12/28 03:19:35;;;;;;;117.90;46.30;;;;;;;-6.04;76.73;99524.20;51324;1316;1017890;-63
2021/12/28 03:22:06;;;;;;;136.20;47.70;;;;;;;-6.04;76.78;99528.17;51260;1322;1016102;-63
2021/12/28 03:24:37;;;;;;;118.10;47.30;;;;;;;-6.04;76.80;99519.77;51143;1316;1016602;-63
2021/12/28 03:27:08;;;;;;;115.20;44.60;;;;;;;-6.02;76.76;99513.72;51216;1315;1016355;-65
2021/12/28 03:29:40;;;;;;;114.50;45.70;;;;;;;-6.01;76.82;99505.19;51161;1319;1015939;-63
2021/12/28 03:32:12;;;;;;;118.00;45.50;;;;;;;-6.01;76.89;99505.34;51052;1319;1016573;-63
2021/12/28 03:34:43;;;;;;;115.30;44.80;;;;;;;-6.00;76.79;99502.01;51259;1315;1016583;-64
2021/12/28 03:37:15;;;;;;;127.60;53.20;;;;;;;-5.98;76.81;99498.27;51304;1316;1016756;-63
2021/12/28 03:39:46;;;;;;;169.80;70.90;;;;;;;-5.96;76.92;99496.65;51249;1320;1016532;-63
2021/12/28 03:42:17;;;;;;;133.50;60.40;;;;;;;-5.94;76.83;99496.48;51183;1316;1017188;-63
2021/12/28 03:44:48;;;;;;;120.70;49.40;;;;;;;-5.93;76.75;99500.77;51249;1323;1016788;-63
2021/12/28 03:47:19;;;;;;;114.70;45.90;;;;;;;-5.95;76.66;99496.10;51178;1318;1016145;-63
2021/12/28 03:49:51;;;;;;;101.50;41.70;;;;;;;-5.96;76.64;99488.80;51174;1315;1020475;-63
2021/12/28 03:52:22;;;;;;;106.50;42.10;;;;;;;-5.96;76.71;99490.90;51112;1315;1016270;-63
2021/12/28 03:54:53;;;;;;;121.10;44.00;;;;;;;-6.00;76.67;99492.61;51238;1316;1016563;-63
2021/12/28 03:57:24;;;;;;;110.60;44.10;;;;;;;-6.04;76.78;99490.04;51162;1322;1016656;-63
2021/12/28 03:59:55;;;;;;;111.50;42.40;;;;;;;-6.04;76.83;99486.78;51244;1320;1016551;-63
2021/12/28 04:02:26;;;;;;;116.80;43.60;;;;;;;-6.03;76.78;99479.10;51358;1315;1016208;-63
2021/12/28 04:04:57;;;;;;;108.80;41.50;;;;;;;-6.07;76.76;99476.76;51283;1315;1015966;-63
2021/12/28 04:07:29;;;;;;;113.30;42.90;;;;;;;-6.10;76.74;99481.34;51202;1322;1016606;-63
2021/12/28 04:10:03;;;;;;;113.90;41.80;;;;;;;-6.08;76.93;99476.83;51128;1315;1018237;-63
2021/12/28 04:12:34;;;;;;;122.00;42.70;;;;;;;-6.09;76.84;99474.34;51153;1320;1017765;-64
2021/12/28 04:15:08;;;;;;;117.90;44.10;;;;;;;-6.09;76.91;99462.24;51208;1322;1015792;-63
2021/12/28 04:17:40;;;;;;;125.70;50.90;;;;;;;-6.08;76.98;99458.89;51266;1323;1017052;-63
2021/12/28 04:20:15;;;;;;;139.00;56.60;;;;;;;-6.10;76.95;99456.88;51143;1316;1017645;-63
2021/12/28 04:22:47;;;;;;;117.90;46.70;;;;;;;-6.13;76.91;99458.59;51259;1315;1016338;-63
2021/12/28 04:25:20;;;;;;;121.90;48.10;;;;;;;-6.15;77.01;99458.59;51222;1320;1017653;-63
2021/12/28 04:27:51;;;;;;;113.50;44.70;;;;;;;-6.16;77.02;99456.18;51324;1315;1016412;-63
2021/12/28 04:30:22;;;;;;;116.60;45.40;;;;;;;-6.17;77.05;99451.21;51078;1315;1016696;-63
2021/12/28 04:32:54;;;;;;;109.70;42.40;;;;;;;-6.17;77.23;99458.97;51493;1306;1016529;-67
2021/12/28 04:35:25;;;;;;;130.70;47.20;;;;;;;-6.12;77.13;99459.06;51066;1320;1018612;-67
2021/12/28 04:37:56;;;;;;;115.50;45.80;;;;;;;-6.10;77.10;99459.60;51351;1316;1016302;-67
2021/12/28 04:40:28;;;;;;;122.20;46.20;;;;;;;-6.10;77.14;99452.61;51160;1320;1016932;-69
2021/12/28 04:42:59;;;;;;;140.60;49.30;;;;;;;-6.08;77.15;99457.83;51273;1319;1016375;-67
2021/12/28 04:45:31;;;;;;;145.90;53.20;;;;;;;-6.05;77.17;99453.17;51077;1316;1018704;-67
2021/12/28 04:48:02;;;;;;;151.90;55.00;;;;;;;-6.04;77.08;99454.56;51109;1317;1016609;-67
2021/12/28 04:50:38;;;;;;;154.80;59.70;;;;;;;-6.05;77.07;99448.43;51058;1324;1016673;-67
2021/12/28 04:53:11;;;;;;;136.30;55.00;;;;;;;-6.03;77.18;99440.98;51114;1323;1016177;-67
2021/12/28 04:55:46;;;;;;;137.60;50.40;;;;;;;-5.99;77.35;99437.26;51109;1322;1015814;-67
2021/12/28 04:58:17;;;;;;;139.50;52.30;;;;;;;-5.97;77.39;99436.33;51063;1317;1016615;-67
2021/12/28 05:00:50;;;;;;;123.40;48.30;;;;;;;-5.97;77.32;99435.70;51233;1316;1017981;-67
2021/12/28 05:03:22;;;;;;;125.50;48.90;;;;;;;-5.96;77.41;99435.39;51221;1315;1016440;-67
2021/12/28 05:05:54;;;;;;;127.40;47.30;;;;;;;-5.98;77.37;99430.64;51283;1316;1016399;-67
2021/12/28 05:08:26;;;;;;;120.50;48.50;;;;;;;-5.95;77.45;99437.48;51277;1313;1016332;-67
2021/12/28 05:10:57;;;;;;;116.90;44.20;;;;;;;-5.92;77.36;99434.23;51182;1315;1017399;-67
2021/12/28 05:13:28;;;;;;;113.60;45.90;;;;;;;-5.86;77.44;99430.80;51337;1316;1015866;-67
2021/12/28 05:16:00;;;;;;;120.70;45.20;;;;;;;-5.86;77.27;99430.58;51257;1313;1016120;-67
2021/12/28 05:18:31;;;;;;;117.20;46.90;;;;;;;-5.86;77.33;99428.25;51288;1314;1016348;-67
2021/12/28 05:21:02;;;;;;;115.00;45.10;;;;;;;-5.82;77.30;99428.36;51284;1320;1016415;-67
2021/12/28 05:23:34;;;;;;;117.60;45.70;;;;;;;-5.80;77.23;99428.30;51206;1321;1019433;-67
2021/12/28 05:26:06;;;;;;;130.50;47.60;;;;;;;-5.78;77.28;99426.27;51263;1317;1016930;-67
2021/12/28 05:28:37;;;;;;;126.10;49.50;;;;;;;-5.77;77.21;99425.34;51263;1319;1016237;-67
2021/12/28 05:31:08;;;;;;;121.20;49.00;;;;;;;-5.79;77.22;99426.73;51072;1319;1016032;-67
2021/12/28 05:33:39;;;;;;;127.60;48.80;;;;;;;-5.80;77.23;99428.60;51155;1320;1016028;-67
2021/12/28 05:36:12;;;;;;;120.20;46.10;;;;;;;-5.81;77.26;99428.45;51236;1316;1016605;-67
2021/12/28 05:38:43;;;;;;;123.90;47.40;;;;;;;-5.80;77.30;99423.55;51147;1319;1016457;-67
2021/12/28 05:41:15;;;;;;;120.50;46.10;;;;;;;-5.75;77.26;99422.46;51133;1317;1016505;-67
2021/12/28 05:43:46;;;;;;;117.00;46.40;;;;;;;-5.74;77.25;99413.06;51079;1316;1016267;-67
2021/12/28 05:46:17;;;;;;;107.20;43.30;;;;;;;-5.72;77.25;99415.86;51157;1315;1016698;-67
2021/12/28 05:48:49;;;;;;;117.90;44.50;;;;;;;-5.74;77.22;99410.73;51109;1321;1016704;-67
2021/12/28 05:51:20;;;;;;;116.40;48.10;;;;;;;-5.75;77.29;99407.63;51181;1320;1016492;-67
2021/12/28 05:53:51;;;;;;;115.10;44.30;;;;;;;-5.73;77.36;99404.67;51208;1321;1016611;-67
2021/12/28 05:56:23;;;;;;;106.00;44.00;;;;;;;-5.72;77.40;99397.52;51082;1313;1016670;-67
2021/12/28 05:58:54;;;;;;;113.10;41.80;;;;;;;-5.75;77.37;99392.16;51106;1320;1015779;-66
2021/12/28 06:01:25;;;;;;;109.60;44.30;;;;;;;-5.76;77.49;99386.50;51111;1315;1016527;-67
2021/12/28 06:03:56;;;;;;;110.00;42.70;;;;;;;-5.76;77.58;99379.98;51098;1318;1017633;-67
2021/12/28 06:06:28;;;;;;;110.30;45.30;;;;;;;-5.73;77.64;99380.44;51138;1313;1016420;-73
2021/12/28 06:08:59;;;;;;;114.70;46.40;;;;;;;-5.71;77.62;99373.91;51465;1320;1016675;-68
2021/12/28 06:11:30;;;;;;;114.60;45.60;;;;;;;-5.70;77.61;99372.83;51364;1313;1015844;-68
2021/12/28 06:14:01;;;;;;;115.60;48.20;;;;;;;-5.71;77.50;99372.44;51068;1317;1016631;-68
2021/12/28 06:16:32;;;;;;;116.00;44.50;;;;;;;-5.70;77.72;99367.00;51186;1320;1016491;-68
2021/12/28 06:19:04;;;;;;;113.30;45.80;;;;;;;-5.69;77.76;99366.84;51215;1315;1018395;-69
2021/12/28 06:21:36;;;;;;;114.10;44.40;;;;;;;-5.68;77.73;99365.14;51179;1312;1016631;-69
2021/12/28 06:24:09;;;;;;;120.80;47.30;;;;;;;-5.68;77.78;99365.05;51265;1313;1015741;-68
2021/12/28 06:26:40;;;;;;;125.40;47.80;;;;;;;-5.68;77.79;99365.53;51277;1313;1016637;-69
2021/12/28 06:29:15;;;;;;;119.00;45.80;;;;;;;-5.66;77.80;99371.50;51259;1317;1016348;-69
2021/12/28 06:31:46;;;;;;;113.20;46.00;;;;;;;-5.66;77.83;99377.80;51306;1317;1016368;-69
2021/12/28 06:34:18;;;;;;;116.30;45.30;;;;;;;-5.67;77.95;99374.61;51405;1316;1018748;-69
2021/12/28 06:36:50;;;;;;;111.50;44.40;;;;;;;-5.65;78.00;99376.23;51445;1313;1016794;-69
2021/12/28 06:39:21;;;;;;;109.70;43.00;;;;;;;-5.64;78.01;99378.95;51538;1313;1016219;-69
2021/12/28 06:41:52;;;;;;;111.30;43.50;;;;;;;-5.66;78.00;99375.45;51429;1316;1016513;-69
2021/12/28 06:44:23;;;;;;;109.50;42.60;;;;;;;-5.64;78.04;99374.84;51619;1319;1016421;-69
2021/12/28 06:46:55;;;;;;;113.00;44.80;;;;;;;-5.60;78.16;99378.23;51511;1316;1016742;-69
2021/12/28 06:49:26;;;;;;;103.10;44.30;;;;;;;-5.59;78.10;99375.52;51511;1320;1016190;-69
2021/12/28 06:51:57;;;;;;;118.60;44.60;;;;;;;-5.56;78.15;99372.33;51559;1319;1018494;-75
2021/12/28 06:54:28;;;;;;;121.90;49.20;;;;;;;-5.56;78.08;99370.61;51533;1317;1016109;-69
2021/12/28 06:57:00;;;;;;;111.30;47.40;;;;;;;-5.55;78.09;99369.69;51536;1317;1019411;-69
2021/12/28 06:59:31;;;;;;;126.70;47.30;;;;;;;-5.55;78.13;99374.50;51679;1319;1016484;-69
2021/12/28 07:02:03;;;;;;;129.90;53.30;;;;;;;-5.52;78.17;99373.87;51312;1315;1016650;-70
2021/12/28 07:04:34;;;;;;;131.90;57.20;;;;;;;-5.48;78.19;99378.91;51401;1315;1019014;-69
2021/12/28 07:07:06;;;;;;;136.70;57.30;;;;;;;-5.48;78.32;99381.33;51362;1315;1015786;-69
2021/12/28 07:09:38;;;;;;;135.50;58.10;;;;;;;-5.46;78.19;99378.06;51390;1319;1016301;-69
2021/12/28 07:12:11;;;;;;;139.60;61.60;;;;;;;-5.44;78.32;99377.98;51424;1320;1018269;-69
2021/12/28 07:14:43;;;;;;;133.20;63.90;;;;;;;-5.43;78.32;99373.77;51369;1320;1017087;-69
2021/12/28 07:17:14;;;;;;;136.50;60.90;;;;;;;-5.39;78.36;99373.84;51410;1319;1016626;-69
2021/12/28 07:19:46;;;;;;;126.80;57.70;;;;;;;-5.32;78.51;99367.67;51295;1317;1016605;-69
2021/12/28 07:22:17;;;;;;;131.90;59.70;;;;;;;-5.24;78.59;99366.02;51303;1313;1016426;-69
2021/12/28 07:24:49;;;;;;;128.00;52.90;;;;;;;-5.21;78.44;99363.52;51254;1315;1016826;-69
2021/12/28 07:27:20;;;;;;;126.00;50.80;;;;;;;-5.18;78.46;99363.80;51431;1319;1016742;-69
2021/12/28 07:29:55;;;;;;;119.30;49.80;;;;;;;-5.16;78.52;99362.41;51306;1320;1016507;-69
2021/12/28 07:32:26;;;;;;;119.40;49.20;;;;;;;-5.15;78.52;99365.58;51490;1320;1016405;-69
2021/12/28 07:34:57;;;;;;;122.00;48.20;;;;;;;-5.13;78.51;99357.19;51388;1317;1016632;-69
2021/12/28 07:37:30;;;;;;;109.80;45.10;;;;;;;-5.11;78.62;99353.14;51394;1322;1016411;-69
2021/12/28 07:40:01;;;;;;;136.70;52.90;;;;;;;-5.08;78.72;99352.65;51371;1313;1017098;-70
2021/12/28 07:42:33;;;;;;;126.80;52.60;;;;;;;-5.04;78.80;99350.54;51475;1320;1016464;-69
2021/12/28 07:45:05;;;;;;;127.90;49.70;;;;;;;-5.02;78.84;99349.44;51326;1320;1016604;-69
2021/12/28 07:47:36;;;;;;;120.90;49.20;;;;;;;-4.98;78.81;99341.64;51269;1320;1016609;-69
2021/12/28 07:50:11;;;;;;;124.60;49.40;;;;;;;-4.96;78.99;99340.77;51261;1320;1016514;-69
2021/12/28 07:52:44;;;;;;;118.20;48.90;;;;;;;-4.93;79.06;99341.54;51367;1319;1017957;-69
2021/12/28 07:55:16;;;;;;;106.00;41.40;;;;;;;-4.89;79.11;99350.63;51432;1320;1016507;-69
2021/12/28 07:57:47;;;;;;;111.00;46.20;;;;;;;-4.87;79.18;99350.61;51483;1315;1016572;-69
2021/12/28 08:00:22;;;;;;;123.40;50.60;;;;;;;-4.84;79.27;99350.43;51420;1312;1016467;-70
2021/12/28 08:02:54;;;;;;;109.90;44.40;;;;;;;-4.79;79.27;99352.36;51358;1320;1016582;-69
2021/12/28 08:05:25;;;;;;;127.80;50.20;;;;;;;-4.73;79.34;99347.50;51311;1318;1017483;-70
2021/12/28 08:07:56;;;;;;;123.40;49.00;;;;;;;-4.67;79.46;99349.95;51380;1315;1017656;-69
2021/12/28 08:10:28;;;;;;;124.20;48.30;;;;;;;-4.60;79.47;99348.95;51464;1319;1018552;-69
2021/12/28 08:13:00;;;;;;;126.00;48.40;;;;;;;-4.52;79.52;99346.27;51473;1319;1016591;-70
2021/12/28 08:15:32;;;;;;;120.70;47.80;;;;;;;-4.44;79.50;99346.35;51459;1315;1016685;-70
2021/12/28 08:18:04;;;;;;;117.00;48.50;;;;;;;-4.37;79.46;99344.45;51413;1320;1015852;-70
2021/12/28 08:20:35;;;;;;;121.90;50.20;;;;;;;-4.29;79.50;99352.87;51437;1322;1016393;-69
2021/12/28 08:23:07;;;;;;;121.40;47.90;;;;;;;-4.23;79.53;99348.77;51364;1315;1019884;-70
2021/12/28 08:25:38;;;;;;;115.40;46.80;;;;;;;-4.18;79.54;99346.39;51359;1320;1017245;-69
2021/12/28 08:28:10;;;;;;;116.00;45.50;;;;;;;-4.11;79.53;99342.05;51494;1318;1016398;-69
2021/12/28 08:30:42;;;;;;;117.60;48.80;;;;;;;-4.05;79.56;99340.38;51369;1318;1016388;-69
2021/12/28 08:33:14;;;;;;;111.50;44.10;;;;;;;-3.98;79.50;99341.24;51495;1320;1016305;-69
2021/12/28 08:35:46;;;;;;;116.00;46.30;;;;;;;-3.96;79.40;99342.09;51392;1320;1016609;-69
2021/12/28 08:38:18;;;;;;;125.60;47.80;;;;;;;-3.93;79.49;99337.40;51315;1315;1016403;-69
2021/12/28 08:40:50;;;;;;;123.50;49.50;;;;;;;-3.90;79.38;99325.98;51433;1320;1016270;-69
2021/12/28 08:43:22;;;;;;;126.70;52.50;;;;;;;-3.88;79.39;99319.41;51429;1320;1016697;-69
2021/12/28 08:45:53;;;;;;;126.40;51.30;;;;;;;-3.86;79.40;99317.52;51301;1319;1016650;-70
2021/12/28 08:48:24;;;;;;;119.00;49.00;;;;;;;-3.85;79.33;99311.67;51420;1320;1016283;-69
2021/12/28 08:50:56;;;;;;;126.70;54.60;;;;;;;-3.82;79.24;99316.87;51391;1320;1016605;-69
2021/12/28 08:53:27;;;;;;;123.60;51.70;;;;;;;-3.79;79.38;99311.62;51286;1322;1016852;-69
2021/12/28 08:55:58;;;;;;;130.30;53.80;;;;;;;-3.78;79.38;99305.91;51433;1318;1016624;-69
2021/12/28 08:58:29;;;;;;;136.60;57.90;;;;;;;-3.76;79.39;99304.80;51360;1322;1015775;-69
2021/12/28 09:01:01;;;;;;;141.60;58.20;;;;;;;-3.74;79.46;99311.64;51461;1319;1016445;-69
2021/12/28 09:03:34;;;;;;;124.40;52.00;;;;;;;-3.70;79.44;99312.99;51437;1313;1018989;-69
2021/12/28 09:06:10;;;;;;;126.20;52.90;;;;;;;-3.69;79.43;99312.98;51330;1320;1016387;-69
2021/12/28 09:08:41;;;;;;;116.00;50.40;;;;;;;-3.68;79.44;99312.82;51352;1320;1017856;-69
2021/12/28 09:11:13;;;;;;;115.60;48.60;;;;;;;-3.64;79.39;99308.26;51385;1318;1016379;-69
2021/12/28 09:13:45;;;;;;;123.50;49.30;;;;;;;-3.59;79.56;99299.63;51304;1320;1016627;-69
2021/12/28 09:16:17;;;;;;;117.90;49.80;;;;;;;-3.55;79.34;99295.91;51327;1315;1020115;-69
2021/12/28 09:18:49;;;;;;;120.40;51.00;;;;;;;-3.50;79.47;99295.23;51353;1315;1016015;-69
2021/12/28 09:21:20;;;;;;;126.90;49.90;;;;;;;-3.43;79.35;99299.83;51317;1315;1015944;-69
2021/12/28 09:23:52;;;;;;;126.50;49.70;;;;;;;-3.37;79.34;99297.65;51353;1320;1016087;-69
2021/12/28 09:26:23;;;;;;;107.40;45.70;;;;;;;-3.34;79.29;99296.99;51332;1319;1016517;-69
2021/12/28 09:28:55;;;;;;;124.80;52.40;;;;;;;-3.29;79.29;99298.88;51471;1319;1016668;-69
2021/12/28 09:31:27;;;;;;;116.40;47.80;;;;;;;-3.21;79.42;99300.02;51453;1320;1016666;-69
2021/12/28 09:33:59;;;;;;;117.50;47.60;;;;;;;-3.15;79.30;99299.71;51418;1317;1020648;-69
2021/12/28 09:36:31;;;;;;;117.40;46.30;;;;;;;-3.11;79.28;99304.18;51340;1320;1016531;-69
2021/12/28 09:39:02;;;;;;;119.30;48.00;;;;;;;-3.07;79.35;99301.41;51376;1320;1016641;-69
2021/12/28 09:41:34;;;;;;;126.20;51.00;;;;;;;-3.01;79.43;99303.44;51373;1321;1018143;-69
2021/12/28 09:44:07;;;;;;;134.10;53.80;;;;;;;-2.97;79.31;99291.35;51461;1321;1016217;-70
2021/12/28 09:46:39;;;;;;;124.30;49.70;;;;;;;-2.92;79.26;99281.09;51510;1316;1017381;-69
2021/12/28 09:49:13;;;;;;;117.50;49.90;;;;;;;-2.86;79.42;99275.98;51338;1316;1016476;-69
2021/12/28 09:51:44;;;;;;;119.50;50.70;;;;;;;-2.79;79.38;99275.35;51467;1322;1016322;-69
2021/12/28 09:54:16;;;;;;;127.30;50.30;;;;;;;-2.75;79.32;99273.80;51482;1317;1016527;-69
2021/12/28 09:56:49;;;;;;;117.80;50.30;;;;;;;-2.70;79.41;99268.81;51439;1319;1016023;-69
2021/12/28 09:59:20;;;;;;;117.10;48.30;;;;;;;-2.62;79.45;99266.96;51463;1319;1016621;-69
2021/12/28 10:01:52;;;;;;;126.50;51.20;;;;;;;-2.57;79.43;99261.59;51463;1318;1016733;-69
2021/12/28 10:04:24;;;;;;;120.40;48.80;;;;;;;-2.54;79.48;99262.77;51325;1322;1016543;-69
2021/12/28 10:07:12;;;;;;;118.20;47.40;;;;;;;-2.47;79.61;99264.38;51371;1316;1017759;-69
2021/12/28 10:09:44;;;;;;;122.40;49.40;;;;;;;-2.37;79.65;99262.35;51372;1319;1018145;-69
2021/12/28 10:12:26;;;;;;;126.20;53.20;;;;;;;-2.30;79.62;99257.95;51349;1319;1016569;-69
2021/12/28 10:15:38;;;;;;;131.00;51.90;;;;;;;-2.22;79.70;99251.86;51326;1318;1016186;-68
2021/12/28 10:18:11;;;;;;;131.70;55.90;;;;;;;-2.12;79.68;99250.68;51148;1324;1016804;-68
2021/12/28 10:20:49;;;;;;;115.50;50.60;;;;;;;-2.05;79.75;99242.73;51335;1323;1016513;-69
2021/12/28 10:23:23;;;;;;;129.50;50.20;;;;;;;-1.94;80.01;99234.55;51206;1324;1016447;-68
2021/12/28 10:25:55;;;;;;;116.80;48.50;;;;;;;-1.84;79.93;99234.83;51214;1319;1016341;-69
2021/12/28 10:28:32;;;;;;;128.20;52.00;;;;;;;-1.74;80.01;99231.27;51311;1323;1018484;-69
2021/12/28 10:31:06;;;;;;;123.10;49.40;;;;;;;-1.63;79.90;99232.70;51215;1316;1016637;-71
2021/12/28 10:33:40;;;;;;;133.80;53.50;;;;;;;-1.55;79.77;99231.52;51226;1318;1015778;-70
2021/12/28 10:36:16;;;;;;;125.20;51.20;;;;;;;-1.45;79.86;99229.60;51308;1316;1019933;-70
2021/12/28 10:41:22;;;;;;;127.40;61.10;;;;;;;-1.31;79.73;99223.51;51374;1319;1016198;-67
2021/12/28 10:43:55;;;;;;;130.00;58.00;;;;;;;-1.25;79.60;99223.00;51446;1318;1016977;-64
2021/12/28 10:46:27;;;;;;;135.50;63.10;;;;;;;-1.19;79.59;99210.50;51350;1319;1016632;-67
2021/12/28 10:49:02;;;;;;;129.90;57.40;;;;;;;-1.11;79.55;99206.02;51386;1318;1016671;-64
2021/12/28 10:51:41;;;;;;;144.60;64.10;;;;;;;-1.05;79.57;99201.17;51344;1313;1016500;-64
2021/12/28 10:54:13;;;;;;;141.60;58.00;;;;;;;-0.96;79.60;99194.33;51350;1319;1016162;-64
2021/12/28 10:56:57;;;;;;;130.00;55.50;;;;;;;-0.86;79.57;99186.25;51363;1319;1016457;-64
2021/12/28 10:59:33;;;;;;;140.10;58.70;;;;;;;-0.79;79.44;99180.08;51363;1319;1016672;-64
2021/12/28 11:02:05;;;;;;;141.80;57.90;;;;;;;-0.73;79.52;99173.19;51425;1319;1016222;-63
2021/12/28 11:04:39;;;;;;;153.00;61.10;;;;;;;-0.67;79.46;99175.06;51360;1319;1016694;-64
2021/12/28 11:07:10;;;;;;;139.60;56.70;;;;;;;-0.60;79.38;99173.16;51372;1318;1018025;-64
2021/12/28 11:09:50;;;;;;;142.40;58.90;;;;;;;-0.54;79.35;99168.48;51346;1317;1016106;-64
2021/12/28 11:12:22;;;;;;;155.20;58.60;;;;;;;-0.47;79.32;99156.48;51364;1319;1019788;-64
2021/12/28 11:14:54;;;;;;;133.40;53.20;;;;;;;-0.42;79.34;99142.08;51340;1319;1016629;-64
2021/12/28 11:17:33;;;;;;;147.10;58.30;;;;;;;-0.37;79.21;99132.85;51406;1317;1016651;-64
2021/12/28 11:20:05;;;;;;;136.10;55.30;;;;;;;-0.30;79.22;99133.77;51232;1317;1019069;-64
2021/12/28 11:22:37;;;;;;;136.00;54.10;;;;;;;-0.27;79.15;99137.84;51277;1313;1016456;-64